< < Back
Terminal Aerodrome Forecast


Current Version              Previous Versions:   1  2  3  4  5  6  7  8  9  

Terminal Aerodrome Forecast

573
FTUS42 KMLB 231700
TAFDAB
TAF
KDAB 231730Z 2318/2418 10008KT P6SM VCTS SCT040CB SCT080 BKN250
     FM240000 VRB03KT P6SM SCT100 BKN250
     FM240300 VRB02KT P6SM SCT250
     FM241400 23010KT P6SM SCT020=



Latest METAR

520
SAUS80 KWBC 232200 RRB
MTRDAB
METAR KDAB 232153Z 15006KT 10SM FEW030CB FEW049 BKN200 29/23 A3002 RMK
AO2 SLP165 CB SW-W STNRY CB DSNT N S T02940233


USA.gov is the U.S. government's official web portal to all federal, state and local government web resources and services.